This is the latest recevied weather packets stored in our database for station/object KR4KUV. If no packets are shown the sender has not sent any weather packets the latest 10 day(s).
| Time | Temp. | Humidity | Pressure | Rain* | Wind** | Luminosity | Snow |
|---|---|---|---|---|---|---|---|
| 1788039124 | 30.56° C | 66% | 1021.7 hPa | 0 mm | - | 289 W/m² | - |
| 1788038820 | 30.56° C | 63% | 1021.8 hPa | 0 mm | - | 296 W/m² | - |
| 1788038515 | 30° C | 65% | 1021.8 hPa | 0 mm | - | 335 W/m² | - |
| 1788038214 | 31.11° C | 64% | 1021.7 hPa | 0 mm | - | 168 W/m² | - |
| 1788037909 | 31.11° C | 67% | 1021.7 hPa | 0 mm | - | 336 W/m² | - |
| 1788037604 | 30.56° C | 63% | 1021.6 hPa | 0 mm | - | 364 W/m² | - |
| 1788037299 | 30.56° C | 63% | 1021.5 hPa | 0 mm | - | 418 W/m² | - |
| 1788036998 | 31.11° C | 66% | 1021.7 hPa | 0 mm | - | 421 W/m² | - |
| 1788036695 | 30.56° C | 64% | 1021.6 hPa | 0 mm | - | 448 W/m² | - |
| 1788036391 | 31.11° C | 64% | 1021.7 hPa | 0 mm | - | 436 W/m² | - |
| 1788036085 | 30.56° C | 64% | 1022 hPa | 0 mm | - | 454 W/m² | - |
| 1788035785 | 31.11° C | 66% | 1022 hPa | 0 mm | - | 466 W/m² | - |
| 1788035480 | 31.11° C | 62% | 1021.9 hPa | 0 mm | - | 487 W/m² | - |
| 1788035175 | 30.56° C | 66% | 1022.1 hPa | 0 mm | - | 490 W/m² | - |
| 1788034872 | 30.56° C | 62% | 1022.1 hPa | 0 mm | - | 492 W/m² | - |
| 1788034567 | 30.56° C | 64% | 1022.2 hPa | 0 mm | - | 526 W/m² | - |
| 1788034263 | 31.11° C | 64% | 1022 hPa | 0 mm | - | 535 W/m² | - |
| 1788033963 | 31.67° C | 62% | 1022.3 hPa | 0 mm | - | 531 W/m² | - |
| 1788033657 | 30.56° C | 63% | 1022.3 hPa | 0 mm | - | 601 W/m² | - |
| 1788033356 | 30.56° C | 66% | 1022.2 hPa | 0 mm | - | 592 W/m² | - |
| 1788033051 | 30.56° C | 66% | 1022.2 hPa | 0 mm | - | 621 W/m² | - |
| 1788032746 | 30.56° C | 68% | 1022.3 hPa | 0 mm | - | 596 W/m² | - |
| 1788032441 | 30.56° C | 66% | 1022.1 hPa | 0 mm | - | 555 W/m² | - |
| 1788032137 | 30° C | 69% | 1022.2 hPa | 0 mm | - | 588 W/m² | - |
| 1788031833 | 30.56° C | 68% | 1022.6 hPa | 0 mm | - | 616 W/m² | - |
* Rain latest hour (hover to see other rain measurements)
** Current wind speed in m/s (hover to see current wind gust speed)